Time;durP1;ratioP1;P1;durP2;ratioP2;P2;SDS_P1;SDS_P2;PMS_P1;PMS_P2;Temp;Humidity;BMP_temperature;BMP_pressure;BME280_temperature;BME280_humidity;BME280_pressure;Samples;Min_cycle;Max_cycle;Signal;HPM_P1;HPM_P2
2022/07/04 00:01:43;;;;;;;10.28;7.95;;;;;;;20.57;69.61;99971.11;1699419;83;21084;-72
2022/07/04 00:04:10;;;;;;;10.55;8.43;;;;;;;20.53;70.06;99968.72;1678258;85;21016;-74
2022/07/04 00:06:38;;;;;;;8.03;6.85;;;;;;;20.40;70.74;99975.84;1689510;84;21900;-72
2022/07/04 00:09:05;;;;;;;15.32;8.58;;;;;;;20.34;70.13;99970.24;1680817;84;20972;-72
2022/07/04 00:11:32;;;;;;;8.68;7.78;;;;;;;20.37;71.27;99972.93;1662186;86;21044;-68
2022/07/04 00:13:59;;;;;;;11.60;8.88;;;;;;;20.34;70.62;99963.97;1656729;85;21503;-67
2022/07/04 00:16:29;;;;;;;18.05;8.55;;;;;;;20.25;70.79;99961.69;1663714;85;21140;-69
2022/07/04 00:18:55;;;;;;;11.28;8.00;;;;;;;20.18;71.65;99967.59;1669841;85;21067;-73
2022/07/04 00:21:22;;;;;;;8.73;7.25;;;;;;;20.13;71.91;99960.05;1672972;85;21100;-72
2022/07/04 00:23:50;;;;;;;10.82;7.47;;;;;;;20.07;72.49;99962.08;1675994;84;21042;-71
2022/07/04 00:26:17;;;;;;;10.70;7.10;;;;;;;20.05;72.70;99967.02;1684065;85;21088;-69
2022/07/04 00:28:43;;;;;;;9.75;7.12;;;;;;;20.08;72.85;99966.44;1684601;84;21066;-69
2022/07/04 00:31:10;;;;;;;7.50;6.70;;;;;;;20.16;72.73;99961.61;1687901;84;21262;-70
2022/07/04 00:33:37;;;;;;;9.80;7.97;;;;;;;20.26;72.53;99965.48;1675779;85;20965;-71
2022/07/04 00:36:05;;;;;;;14.85;9.85;;;;;;;20.29;72.78;99970.32;1688277;85;20953;-72
2022/07/04 00:38:32;;;;;;;15.72;9.75;;;;;;;20.10;72.03;99972.38;1686529;85;21029;-71
2022/07/04 00:40:58;;;;;;;9.75;8.28;;;;;;;20.02;72.50;99978.02;1689441;83;21024;-72
2022/07/04 00:43:27;;;;;;;8.30;7.35;;;;;;;19.93;74.15;99981.22;1652083;85;21137;-70
2022/07/04 00:45:54;;;;;;;9.93;8.13;;;;;;;19.78;74.36;99976.61;1674888;85;20973;-69
2022/07/04 00:48:20;;;;;;;11.18;8.28;;;;;;;19.57;75.13;99974.83;1689451;84;21017;-70
2022/07/04 00:50:48;;;;;;;9.45;7.42;;;;;;;19.45;75.47;99969.06;1687922;84;21057;-70
2022/07/04 00:53:15;;;;;;;9.63;6.70;;;;;;;19.44;75.76;99970.17;1689569;84;21004;-71
2022/07/04 00:55:43;;;;;;;11.57;6.70;;;;;;;19.53;75.34;99966.45;1688061;84;21537;-70
2022/07/04 00:58:10;;;;;;;8.38;6.92;;;;;;;19.59;75.15;99968.52;1687400;84;20961;-72
2022/07/04 01:00:36;;;;;;;8.30;7.42;;;;;;;19.62;75.00;99968.46;1660775;86;21105;-70
2022/07/04 01:03:05;;;;;;;13.38;7.58;;;;;;;19.65;75.12;99962.42;1700937;83;21088;-73
2022/07/04 01:05:32;;;;;;;8.48;7.60;;;;;;;19.72;74.89;99968.27;1704818;82;21624;-71
2022/07/04 01:08:00;;;;;;;9.80;6.95;;;;;;;19.78;74.60;99968.42;1676990;84;21203;-71
2022/07/04 01:10:27;;;;;;;9.55;7.20;;;;;;;19.80;74.51;99969.75;1664069;85;20935;-71
2022/07/04 01:12:55;;;;;;;9.00;7.90;;;;;;;19.84;74.45;99968.58;1692221;82;21035;-72
2022/07/04 01:15:23;;;;;;;8.23;7.42;;;;;;;19.97;74.17;99969.93;1696863;84;21060;-71
2022/07/04 01:17:50;;;;;;;10.40;7.83;;;;;;;20.05;73.90;99972.48;1683071;84;21748;-71
2022/07/04 01:20:17;;;;;;;9.30;7.72;;;;;;;20.03;73.63;99972.00;1696894;84;21467;-72
2022/07/04 01:22:44;;;;;;;7.50;6.80;;;;;;;20.02;73.52;99974.47;1710259;83;21060;-72
2022/07/04 01:25:13;;;;;;;8.88;7.92;;;;;;;20.02;73.57;99969.83;1700180;83;22060;-72
2022/07/04 01:27:41;;;;;;;7.90;6.80;;;;;;;20.04;73.37;99970.89;1683694;83;21540;-72
2022/07/04 01:30:10;;;;;;;8.80;7.90;;;;;;;20.08;73.30;99960.97;1680486;85;21059;-72
2022/07/04 01:32:37;;;;;;;11.93;6.90;;;;;;;20.13;73.11;99963.59;1665019;85;21758;-72
2022/07/04 01:35:06;;;;;;;7.95;7.15;;;;;;;20.12;72.90;99972.90;1667391;83;21005;-71
2022/07/04 01:37:33;;;;;;;10.98;6.80;;;;;;;20.09;72.95;99963.15;1661503;85;21564;-71
2022/07/04 01:40:00;;;;;;;13.22;7.53;;;;;;;20.05;72.87;99968.98;1703132;84;21481;-71
2022/07/04 01:42:28;;;;;;;7.92;7.10;;;;;;;19.90;73.04;99961.91;1695478;84;21040;-69
2022/07/04 01:44:56;;;;;;;14.95;7.30;;;;;;;19.76;73.54;99961.89;1709828;83;21221;-71
2022/07/04 01:47:23;;;;;;;11.53;7.50;;;;;;;19.60;73.87;99960.59;1692977;84;20980;-70
2022/07/04 01:49:50;;;;;;;17.00;8.45;;;;;;;19.41;74.50;99959.30;1679884;85;21048;-72
2022/07/04 01:52:17;;;;;;;10.28;6.90;;;;;;;19.10;75.49;99956.30;1696575;84;21549;-72
2022/07/04 01:54:44;;;;;;;8.10;7.30;;;;;;;18.82;76.41;99961.41;1709509;83;21506;-71
2022/07/04 01:57:12;;;;;;;10.45;7.25;;;;;;;18.65;77.16;99953.80;1690445;84;21110;-70
2022/07/04 02:02:25;;;;;;;11.08;7.40;;;;;;;18.64;77.96;99956.81;1695719;84;20973;-71
2022/07/04 02:04:51;;;;;;;8.63;7.17;;;;;;;18.63;78.06;99962.81;1696103;84;21016;-70
2022/07/04 02:07:18;;;;;;;11.95;7.05;;;;;;;18.63;78.01;99966.08;1671335;85;21559;-69
2022/07/04 02:09:45;;;;;;;11.38;8.10;;;;;;;18.66;78.37;99970.37;1695723;84;22124;-70
2022/07/04 02:14:57;;;;;;;9.00;8.13;;;;;;;18.76;78.01;99960.42;1687667;83;21051;-70
2022/07/04 02:17:24;;;;;;;8.90;7.95;;;;;;;18.75;77.85;99961.55;1711067;82;21060;-69
2022/07/04 02:19:51;;;;;;;10.78;8.28;;;;;;;18.81;78.07;99963.87;1697848;84;21060;-71
2022/07/04 02:22:19;;;;;;;9.53;8.55;;;;;;;18.93;78.00;99968.33;1697050;84;21268;-71
2022/07/04 02:24:46;;;;;;;10.35;8.53;;;;;;;19.08;77.64;99969.98;1713199;83;21007;-70
2022/07/04 02:27:13;;;;;;;8.43;7.62;;;;;;;19.15;77.00;99976.66;1714367;83;21095;-70
2022/07/04 02:29:40;;;;;;;16.20;8.50;;;;;;;19.23;76.71;99979.27;1728691;83;21588;-70
2022/07/04 02:32:08;;;;;;;9.65;8.50;;;;;;;19.41;76.15;99984.39;1711821;82;21034;-71
2022/07/04 02:34:35;;;;;;;9.63;8.35;;;;;;;19.58;75.27;99980.55;1660410;84;21168;-70
2022/07/04 02:37:03;;;;;;;11.93;7.85;;;;;;;19.73;74.60;99980.25;1697982;84;20993;-70
2022/07/04 02:39:30;;;;;;;13.08;8.08;;;;;;;19.87;73.82;99980.24;1711641;82;21008;-71
2022/07/04 02:41:57;;;;;;;13.55;8.43;;;;;;;19.99;73.20;99985.47;1702813;84;21029;-70
2022/07/04 02:44:24;;;;;;;10.03;8.18;;;;;;;20.10;72.60;99989.31;1729456;82;21004;-70
2022/07/04 02:46:51;;;;;;;10.30;8.30;;;;;;;20.17;71.95;99988.36;1711697;83;21291;-71
2022/07/04 02:49:19;;;;;;;14.40;8.13;;;;;;;20.23;71.35;99981.13;1697386;84;21020;-70
2022/07/04 02:51:45;;;;;;;11.97;8.70;;;;;;;20.30;70.85;99983.42;1707156;83;21502;-71
2022/07/04 02:54:14;;;;;;;25.17;8.85;;;;;;;20.36;70.24;99984.41;1710716;82;21030;-69
2022/07/04 02:56:41;;;;;;;9.30;7.53;;;;;;;20.42;69.74;99987.84;1694575;83;21536;-68
2022/07/04 02:59:08;;;;;;;9.15;6.92;;;;;;;20.45;69.21;99989.40;1711504;82;21110;-69
2022/07/04 03:01:35;;;;;;;12.40;8.58;;;;;;;20.50;68.57;99988.47;1700634;84;21056;-69
2022/07/04 03:04:03;;;;;;;30.68;19.40;;;;;;;20.55;68.25;99979.34;1701140;82;21056;-70
2022/07/04 03:06:31;;;;;;;14.35;11.03;;;;;;;20.59;68.01;99985.81;1688452;84;21061;-69
2022/07/04 03:08:58;;;;;;;19.20;12.03;;;;;;;20.63;67.97;99988.17;1688065;84;21519;-71
2022/07/04 03:11:27;;;;;;;20.92;12.47;;;;;;;20.63;67.97;99987.61;1689793;84;21263;-70
2022/07/04 03:13:54;;;;;;;19.90;13.40;;;;;;;20.60;68.64;99986.88;1688766;83;21010;-71
2022/07/04 03:16:21;;;;;;;21.60;13.08;;;;;;;20.54;69.08;99988.66;1687783;85;21045;-69
2022/07/04 03:18:48;;;;;;;16.50;10.45;;;;;;;20.51;69.33;99990.09;1687686;84;21053;-72
2022/07/04 03:21:15;;;;;;;13.13;9.43;;;;;;;20.56;68.72;99989.17;1690484;84;21061;-70
2022/07/04 03:23:57;;;;;;;14.70;9.13;;;;;;;20.65;68.05;99984.58;1690425;84;21108;-71
2022/07/04 03:26:14;;;;;;;12.20;9.28;;;;;;;20.74;67.75;99976.70;1691667;84;20992;-69
2022/07/04 03:28:40;;;;;;;19.25;13.00;;;;;;;20.82;67.92;99986.88;1690435;83;21075;-71
2022/07/04 03:31:07;;;;;;;23.07;13.43;;;;;;;20.93;68.10;99986.64;1687206;83;21113;-71
2022/07/04 03:33:36;;;;;;;26.12;14.60;;;;;;;20.86;68.68;99985.73;1687751;84;21075;-72
2022/07/04 03:36:02;;;;;;;15.75;11.35;;;;;;;20.82;68.90;99988.80;1684217;85;21124;-70
2022/07/04 03:38:30;;;;;;;17.48;10.70;;;;;;;20.82;68.04;99980.05;1661558;85;20946;-70
2022/07/04 03:40:56;;;;;;;11.63;9.65;;;;;;;20.92;68.00;99985.02;1675406;84;22216;-70
2022/07/04 03:43:23;;;;;;;17.57;9.43;;;;;;;20.92;68.00;99985.02;1689484;84;20988;-69
2022/07/04 03:45:50;;;;;;;19.10;12.63;;;;;;;20.98;67.34;99990.06;1689552;84;21004;-69
2022/07/04 03:48:17;;;;;;;18.12;11.08;;;;;;;21.05;67.47;99993.73;1687344;85;21153;-68
2022/07/04 03:50:46;;;;;;;15.68;11.60;;;;;;;21.13;67.59;99989.72;1688750;84;20982;-70
2022/07/04 03:53:15;;;;;;;11.70;10.50;;;;;;;21.21;67.62;99992.24;1690328;84;21040;-71
2022/07/04 03:55:43;;;;;;;11.85;10.18;;;;;;;21.27;67.66;99992.37;1688006;83;20966;-72
2022/07/04 03:58:09;;;;;;;14.18;9.88;;;;;;;21.33;67.57;99994.42;1686493;84;21561;-70
2022/07/04 04:00:36;;;;;;;12.80;10.15;;;;;;;21.41;67.80;99982.70;1686588;84;22622;-72
2022/07/04 04:05:25;;;;;;;14.10;9.90;;;;;;;21.41;67.80;99982.70;1689783;83;21534;-71
2022/07/04 04:05:33;;;;;;;11.48;10.23;;;;;;;21.46;67.72;99988.04;1682888;84;20966;-70
2022/07/04 04:08:01;;;;;;;14.63;10.25;;;;;;;21.50;67.56;99982.18;1655250;86;21032;-70
2022/07/04 04:10:30;;;;;;;15.53;11.35;;;;;;;21.54;67.31;99982.59;1687646;84;21084;-71
2022/07/04 04:12:57;;;;;;;19.90;14.85;;;;;;;21.57;67.42;99979.81;1697993;84;21903;-70
2022/07/04 04:15:24;;;;;;;18.17;11.18;;;;;;;21.60;67.96;99987.38;1701909;84;21104;-69
2022/07/04 04:17:51;;;;;;;13.98;9.75;;;;;;;21.64;67.75;99980.95;1698891;84;20891;-70
2022/07/04 04:20:19;;;;;;;10.70;9.10;;;;;;;21.72;67.43;99984.87;1696591;84;21103;-72
2022/07/04 04:22:46;;;;;;;12.65;9.15;;;;;;;21.77;66.95;99980.63;1710327;83;20984;-73
2022/07/04 04:25:12;;;;;;;15.60;9.50;;;;;;;21.85;66.72;99979.83;1727964;82;21206;-71
2022/07/04 04:27:40;;;;;;;15.05;10.30;;;;;;;21.93;66.54;99976.33;1693902;83;20917;-71
2022/07/04 04:30:08;;;;;;;12.10;9.65;;;;;;;22.00;66.06;99973.95;1692664;84;21008;-72
2022/07/04 04:32:35;;;;;;;12.18;8.73;;;;;;;22.05;65.94;99969.69;1693812;83;21020;-70
2022/07/04 04:35:07;;;;;;;11.25;8.45;;;;;;;22.10;65.84;99981.88;1697293;84;21072;-69
2022/07/04 04:37:34;;;;;;;10.68;9.58;;;;;;;22.13;65.38;99978.48;1706958;83;21831;-69
2022/07/04 04:40:00;;;;;;;11.35;8.48;;;;;;;22.18;65.16;99977.53;1710197;83;21497;-70
2022/07/04 04:42:27;;;;;;;17.52;9.23;;;;;;;22.24;64.85;99976.81;1707466;83;21043;-70
2022/07/04 04:44:53;;;;;;;11.48;9.30;;;;;;;22.28;64.56;99980.52;1701423;83;22122;-69
2022/07/04 04:47:20;;;;;;;17.48;8.23;;;;;;;22.30;64.39;99979.06;1727460;83;21139;-70
2022/07/04 04:49:47;;;;;;;11.97;9.20;;;;;;;22.33;64.49;99977.07;1711071;83;21253;-69
2022/07/04 04:52:14;;;;;;;10.68;9.55;;;;;;;22.39;64.49;99976.36;1727727;83;20949;-67
2022/07/04 04:54:40;;;;;;;11.20;8.00;;;;;;;22.44;64.50;99978.37;1712953;83;21084;-68
2022/07/04 04:57:08;;;;;;;12.65;11.35;;;;;;;22.51;64.36;99986.91;1726060;83;21040;-69
2022/07/04 04:59:35;;;;;;;10.23;9.20;;;;;;;22.55;64.36;99987.88;1695054;84;21026;-69
2022/07/04 05:02:05;;;;;;;11.10;8.28;;;;;;;22.61;64.40;99986.60;1696997;84;21000;-69
2022/07/04 05:04:31;;;;;;;12.80;8.75;;;;;;;22.67;64.53;99984.51;1702384;83;21019;-68
2022/07/04 05:06:58;;;;;;;12.98;9.05;;;;;;;22.72;64.86;99986.31;1698704;84;20972;-69
2022/07/04 05:09:25;;;;;;;11.65;8.80;;;;;;;22.76;65.04;99981.79;1698713;84;21052;-68
2022/07/04 05:11:52;;;;;;;10.85;8.33;;;;;;;22.81;65.17;99984.37;1698569;84;21544;-69
2022/07/04 05:14:20;;;;;;;10.55;9.55;;;;;;;22.86;65.25;99985.58;1698771;83;20969;-70
2022/07/04 05:16:47;;;;;;;10.58;9.58;;;;;;;22.88;65.32;99986.04;1696032;84;20981;-70
2022/07/04 05:19:14;;;;;;;15.65;9.73;;;;;;;22.90;65.48;99985.16;1698956;84;21010;-70
2022/07/04 05:21:41;;;;;;;12.07;10.05;;;;;;;22.92;65.76;99980.98;1699839;84;20936;-71
2022/07/04 05:24:07;;;;;;;12.30;10.43;;;;;;;22.96;65.89;99977.02;1697420;84;20972;-70
2022/07/04 05:26:34;;;;;;;10.32;9.33;;;;;;;23.00;65.78;99974.67;1697208;84;21101;-72
2022/07/04 05:29:01;;;;;;;12.85;8.50;;;;;;;23.08;65.22;99973.59;1698808;84;21465;-71
2022/07/04 05:31:28;;;;;;;11.30;8.93;;;;;;;23.14;64.42;99974.47;1698545;83;21032;-69
2022/07/04 05:33:54;;;;;;;9.40;8.53;;;;;;;23.20;64.10;99974.55;1697139;84;21077;-70
2022/07/04 05:36:23;;;;;;;17.15;9.48;;;;;;;23.25;63.87;99971.63;1688649;83;21072;-70
2022/07/04 05:38:50;;;;;;;13.53;9.55;;;;;;;23.33;63.70;99976.28;1695691;84;21144;-70
2022/07/04 05:41:17;;;;;;;11.35;8.73;;;;;;;23.40;63.13;99976.56;1696972;84;21245;-70
2022/07/04 05:43:44;;;;;;;10.50;8.20;;;;;;;23.46;62.59;99974.48;1699017;83;20944;-70
2022/07/04 05:46:11;;;;;;;10.65;8.78;;;;;;;23.54;62.24;99970.12;1697293;84;21009;-69
2022/07/04 05:48:37;;;;;;;9.38;7.20;;;;;;;23.60;61.76;99977.02;1681971;84;22241;-68
2022/07/04 05:51:04;;;;;;;11.88;7.12;;;;;;;23.66;59.90;99974.33;1680346;84;21536;-69
2022/07/04 05:53:31;;;;;;;8.88;7.97;;;;;;;23.70;58.51;99972.53;1686265;84;20982;-68
2022/07/04 05:55:59;;;;;;;7.83;7.03;;;;;;;23.75;58.50;99970.98;1697280;84;21541;-68
2022/07/04 05:58:27;;;;;;;7.87;7.15;;;;;;;23.82;58.31;99975.40;1693706;84;21040;-70
2022/07/04 06:00:56;;;;;;;12.00;7.85;;;;;;;23.88;58.01;99967.99;1678091;84;21072;-68
2022/07/04 06:03:23;;;;;;;9.45;7.25;;;;;;;23.95;58.23;99976.30;1641980;85;21313;-69
2022/07/04 06:05:50;;;;;;;8.90;7.58;;;;;;;24.00;58.07;99964.55;1693679;84;20954;-69
2022/07/04 06:08:17;;;;;;;9.80;7.67;;;;;;;24.06;57.81;99965.97;1697249;84;21877;-70
2022/07/04 06:10:45;;;;;;;7.58;6.70;;;;;;;24.13;57.19;99956.61;1698815;84;21039;-70
2022/07/04 06:13:14;;;;;;;7.17;6.47;;;;;;;24.20;56.07;99964.38;1698952;83;21025;-72
2022/07/04 06:15:41;;;;;;;7.45;6.72;;;;;;;24.25;55.29;99956.74;1695130;84;21320;-71
2022/07/04 06:18:08;;;;;;;11.88;6.60;;;;;;;24.32;55.28;99963.06;1696440;84;21561;-71
2022/07/04 06:20:35;;;;;;;8.65;6.53;;;;;;;24.37;54.82;99957.37;1695579;84;20977;-69
2022/07/04 06:23:05;;;;;;;6.42;5.83;;;;;;;24.43;54.68;99958.78;1694878;84;22143;-69
2022/07/04 06:25:32;;;;;;;7.67;6.50;;;;;;;24.50;54.68;99953.56;1695186;84;21924;-69
2022/07/04 06:27:59;;;;;;;7.55;5.62;;;;;;;24.56;54.23;99956.33;1692697;83;21166;-68
2022/07/04 06:30:26;;;;;;;10.60;6.47;;;;;;;24.62;53.56;99954.98;1701537;83;20929;-69
2022/07/04 06:32:55;;;;;;;6.58;5.97;;;;;;;24.69;52.92;99951.70;1695448;84;21120;-71
2022/07/04 06:38:11;;;;;;;10.00;7.95;;;;;;;24.82;52.84;99951.17;1700413;84;21083;-72
2022/07/04 06:40:38;;;;;;;7.33;5.85;;;;;;;24.90;51.91;99952.49;1703449;83;21139;-69
2022/07/04 06:43:05;;;;;;;8.08;6.47;;;;;;;24.95;51.81;99949.53;1696212;83;21072;-69
2022/07/04 06:45:33;;;;;;;6.90;6.25;;;;;;;24.99;51.66;99942.77;1695589;84;20934;-67
2022/07/04 06:48:04;;;;;;;9.85;6.05;;;;;;;25.04;51.16;99934.30;1696355;84;20977;-68
2022/07/04 06:50:34;;;;;;;7.97;5.83;;;;;;;25.05;50.75;99939.47;1698894;84;21039;-68
2022/07/04 06:53:05;;;;;;;6.72;6.12;;;;;;;25.07;50.88;99931.69;1698779;83;21147;-68
2022/07/04 06:55:34;;;;;;;6.60;5.97;;;;;;;25.11;51.13;99931.80;1696593;84;21522;-69
2022/07/04 06:58:01;;;;;;;7.00;5.83;;;;;;;25.17;50.83;99931.26;1698164;84;21104;-70
2022/07/04 07:00:32;;;;;;;10.88;6.65;;;;;;;25.23;50.19;99926.30;1662571;86;21062;-69
2022/07/04 07:03:00;;;;;;;6.97;5.55;;;;;;;25.27;48.80;99932.77;1672750;84;21044;-68
2022/07/04 07:05:28;;;;;;;6.75;5.92;;;;;;;25.32;48.65;99936.67;1674899;84;21719;-69
2022/07/04 07:07:55;;;;;;;6.25;5.67;;;;;;;25.36;48.37;99931.28;1711015;83;21498;-69
2022/07/04 07:10:22;;;;;;;11.85;5.25;;;;;;;25.41;48.02;99931.87;1714814;83;21055;-70
2022/07/04 07:12:49;;;;;;;8.43;5.37;;;;;;;25.47;47.85;99934.60;1697122;84;21565;-69
2022/07/04 07:15:16;;;;;;;14.23;9.38;;;;;;;25.54;47.94;99940.39;1697197;84;20997;-68
2022/07/04 07:17:43;;;;;;;10.53;7.25;;;;;;;25.58;48.20;99937.75;1710416;83;21972;-69
2022/07/04 07:20:13;;;;;;;7.15;6.20;;;;;;;25.61;48.47;99937.86;1692250;84;21038;-67
2022/07/04 07:22:41;;;;;;;7.55;6.17;;;;;;;25.67;48.30;99939.00;1707140;84;21048;-70
2022/07/04 07:25:10;;;;;;;9.25;6.25;;;;;;;25.71;48.47;99942.11;1710367;83;21043;-70
2022/07/04 07:27:38;;;;;;;6.60;5.97;;;;;;;25.74;48.22;99944.19;1697645;84;21049;-69
2022/07/04 07:30:06;;;;;;;5.67;5.10;;;;;;;25.81;48.26;99949.11;1710728;82;21272;-71
2022/07/04 07:32:33;;;;;;;6.20;5.17;;;;;;;25.89;48.32;99941.31;1671830;85;21091;-68
2022/07/04 07:35:00;;;;;;;8.08;5.40;;;;;;;25.97;48.43;99941.76;1671206;84;21472;-70
2022/07/04 07:37:27;;;;;;;14.85;12.03;;;;;;;26.02;47.83;99933.25;1678215;84;21053;-71
2022/07/04 07:39:54;;;;;;;8.35;7.58;;;;;;;26.11;47.76;99948.28;1691557;84;21091;-70
2022/07/04 07:42:24;;;;;;;8.48;6.55;;;;;;;26.17;47.41;99944.14;1707715;83;21404;-70
2022/07/04 07:44:51;;;;;;;7.40;6.72;;;;;;;26.21;47.40;99947.81;1694794;83;20999;-71
2022/07/04 07:47:18;;;;;;;7.30;5.12;;;;;;;26.25;47.23;99941.28;1714378;83;21091;-70
2022/07/04 07:49:47;;;;;;;6.25;5.25;;;;;;;26.32;47.03;99938.75;1725985;83;20969;-70
2022/07/04 07:52:15;;;;;;;6.78;5.67;;;;;;;26.40;47.18;99934.23;1708945;83;21519;-71
2022/07/04 07:54:42;;;;;;;8.43;5.92;;;;;;;26.46;47.20;99936.98;1697207;84;21369;-71
2022/07/04 07:57:10;;;;;;;6.55;5.75;;;;;;;26.53;47.23;99934.98;1694576;82;21540;-72
2022/07/04 07:59:38;;;;;;;5.47;5.05;;;;;;;26.59;47.05;99928.88;1696406;84;21329;-71
2022/07/04 08:02:05;;;;;;;7.47;5.53;;;;;;;26.67;47.16;99928.49;1704504;83;21036;-70
2022/07/04 08:04:34;;;;;;;10.93;5.55;;;;;;;26.77;46.94;99930.75;1677061;85;21131;-70
2022/07/04 08:07:06;;;;;;;8.00;5.97;;;;;;;26.83;46.57;99930.16;1694768;84;21507;-72
2022/07/04 08:09:37;;;;;;;7.17;5.47;;;;;;;26.94;46.52;99932.44;1693298;84;21032;-71
2022/07/04 08:12:05;;;;;;;7.78;5.40;;;;;;;26.98;46.13;99934.14;1701951;84;21503;-70
2022/07/04 08:14:33;;;;;;;11.75;5.10;;;;;;;26.95;45.29;99931.30;1698570;83;21120;-73
2022/07/04 08:17:00;;;;;;;5.22;4.75;;;;;;;26.95;44.86;99931.30;1692608;84;21597;-70
2022/07/04 08:19:27;;;;;;;10.45;5.95;;;;;;;26.95;45.02;99935.44;1697970;83;21305;-71
2022/07/04 08:21:54;;;;;;;13.58;6.08;;;;;;;26.87;45.22;99939.36;1697174;84;21041;-70
2022/07/04 08:24:22;;;;;;;6.72;5.10;;;;;;;26.83;45.54;99933.49;1697034;84;21009;-70
2022/07/04 08:26:49;;;;;;;7.92;5.40;;;;;;;26.82;45.49;99938.20;1674397;84;21624;-68
2022/07/04 08:29:19;;;;;;;6.37;5.85;;;;;;;26.75;45.74;99929.75;1698708;84;21098;-69
2022/07/04 08:31:46;;;;;;;9.13;6.20;;;;;;;26.76;46.17;99927.19;1698826;83;21122;-70
2022/07/04 08:34:13;;;;;;;6.45;5.87;;;;;;;26.78;46.58;99930.41;1697044;84;21537;-70
2022/07/04 08:36:42;;;;;;;10.08;8.85;;;;;;;26.80;46.14;99925.35;1696530;84;20953;-70
2022/07/04 08:39:09;;;;;;;9.38;6.62;;;;;;;26.89;45.74;99928.78;1698187;84;21080;-72
2022/07/04 08:41:39;;;;;;;10.40;5.55;;;;;;;26.99;45.42;99926.66;1697306;84;21088;-71
2022/07/04 08:44:10;;;;;;;6.45;5.50;;;;;;;27.06;45.24;99925.45;1697231;84;21191;-69
2022/07/04 08:46:38;;;;;;;6.58;5.05;;;;;;;27.15;45.08;99921.95;1695878;84;20997;-70
2022/07/04 08:49:12;;;;;;;5.22;4.15;;;;;;;27.22;44.52;99924.91;1696074;84;21016;-71
2022/07/04 08:51:50;;;;;;;6.00;4.85;;;;;;;27.29;44.39;99921.73;1691339;83;21044;-71
2022/07/04 08:59:50;;;;;;;5.58;5.17;;;;;;;27.51;43.85;99916.21;1677287;84;21055;-70
2022/07/04 09:02:18;;;;;;;11.35;4.90;;;;;;;27.63;43.61;99918.86;1669054;85;21555;-66
2022/07/04 09:04:45;;;;;;;6.12;4.53;;;;;;;27.75;43.65;99920.73;1672555;85;21032;-70
2022/07/04 09:07:12;;;;;;;6.95;5.60;;;;;;;27.84;43.30;99915.81;1667357;84;21076;-67
2022/07/04 09:09:41;;;;;;;6.08;4.22;;;;;;;27.90;43.01;99921.30;1669364;84;21306;-68
2022/07/04 09:12:10;;;;;;;9.80;5.10;;;;;;;27.95;42.57;99920.21;1657499;86;20996;-70
2022/07/04 09:14:38;;;;;;;7.30;4.92;;;;;;;27.98;42.84;99916.72;1642991;86;20983;-67
2022/07/04 09:17:06;;;;;;;10.70;4.37;;;;;;;28.10;42.56;99919.38;1670189;85;21039;-67
2022/07/04 09:19:33;;;;;;;9.95;5.45;;;;;;;28.18;41.95;99916.42;1670372;85;21111;-71
2022/07/04 09:22:05;;;;;;;7.08;4.85;;;;;;;28.21;41.78;99910.73;1660707;85;21192;-71
2022/07/04 09:24:50;;;;;;;9.50;5.45;;;;;;;28.25;41.59;99908.84;1669487;85;21019;-72
2022/07/04 09:27:35;;;;;;;12.28;10.98;;;;;;;28.27;41.60;99906.53;1665592;85;21468;-69
2022/07/04 09:30:03;;;;;;;11.35;6.22;;;;;;;28.30;41.85;99904.41;1669954;85;20976;-68
2022/07/04 09:32:54;;;;;;;6.60;5.40;;;;;;;28.42;41.94;99902.90;1670390;85;21065;-66
2022/07/04 09:35:23;;;;;;;6.58;6.03;;;;;;;28.50;40.90;99905.22;1658424;85;21814;-69
2022/07/04 09:37:55;;;;;;;5.92;5.35;;;;;;;28.48;41.40;99906.98;1669733;85;21565;-68
2022/07/04 09:40:32;;;;;;;5.67;4.37;;;;;;;28.49;41.54;99903.03;1670828;85;21545;-69
2022/07/04 09:43:01;;;;;;;8.38;5.08;;;;;;;28.56;41.11;99900.42;1669950;85;21106;-69
2022/07/04 09:45:29;;;;;;;6.47;4.17;;;;;;;28.66;39.28;99905.14;1670043;85;21062;-69
2022/07/04 09:47:57;;;;;;;5.22;4.83;;;;;;;28.69;38.86;99912.70;1668402;85;21423;-67
2022/07/04 09:50:26;;;;;;;5.85;5.30;;;;;;;28.75;38.49;99912.67;1670513;85;21046;-69
2022/07/04 09:52:59;;;;;;;5.90;5.40;;;;;;;28.75;38.90;99911.28;1663322;84;21019;-68
2022/07/04 09:55:32;;;;;;;7.37;4.90;;;;;;;28.75;39.13;99913.47;1666278;85;21100;-67
2022/07/04 09:58:02;;;;;;;6.10;5.47;;;;;;;28.74;39.11;99904.95;1669870;84;21134;-67
2022/07/04 10:00:35;;;;;;;5.12;4.58;;;;;;;28.75;39.31;99896.86;1669883;85;21878;-68
2022/07/04 10:03:27;;;;;;;6.33;4.55;;;;;;;28.79;39.43;99903.27;1669475;84;20996;-68
2022/07/04 10:06:13;;;;;;;4.90;4.53;;;;;;;28.78;38.79;99897.50;1669970;84;21103;-67
2022/07/04 10:08:40;;;;;;;7.17;4.97;;;;;;;28.78;39.14;99890.58;1692039;82;21031;-69
2022/07/04 10:11:09;;;;;;;7.03;5.03;;;;;;;28.87;39.28;99895.30;1702765;83;21236;-72
2022/07/04 10:13:37;;;;;;;6.12;5.47;;;;;;;28.98;39.69;99891.34;1702968;82;21117;-71
2022/07/04 10:16:05;;;;;;;4.30;3.90;;;;;;;29.12;39.42;99885.25;1703356;83;21517;-72
2022/07/04 10:18:32;;;;;;;6.67;4.42;;;;;;;29.23;38.90;99882.89;1703554;82;21063;-72
2022/07/04 10:20:59;;;;;;;6.62;5.15;;;;;;;29.37;39.26;99874.05;1701641;82;21115;-70
2022/07/04 10:23:31;;;;;;;6.20;4.40;;;;;;;29.52;38.30;99872.30;1686117;83;22232;-71
2022/07/04 10:25:56;;;;;;;5.50;4.80;;;;;;;29.60;38.23;99876.19;1673271;85;21706;-69
2022/07/04 10:28:22;;;;;;;4.42;3.85;;;;;;;29.60;37.65;99874.00;1721757;82;21569;-70
2022/07/04 10:30:52;;;;;;;6.78;4.55;;;;;;;29.57;37.87;99874.17;1686991;85;32618;-69
2022/07/04 10:33:26;;;;;;;6.47;4.72;;;;;;;29.51;37.86;99874.85;1686447;84;21523;-68
2022/07/04 10:36:05;;;;;;;4.95;4.55;;;;;;;29.44;37.48;99872.20;1703210;83;22168;-70
2022/07/04 10:38:50;;;;;;;5.42;4.90;;;;;;;29.41;37.71;99871.55;1703235;82;21921;-75
2022/07/04 10:41:20;;;;;;;7.92;5.25;;;;;;;29.47;38.01;99862.33;1680128;83;21061;-73
2022/07/04 10:44:14;;;;;;;5.80;4.97;;;;;;;29.66;37.55;99862.23;1686255;84;21065;-74
2022/07/04 10:46:46;;;;;;;8.10;5.40;;;;;;;29.76;36.63;99864.36;1687099;84;21052;-73
2022/07/04 10:49:21;;;;;;;5.37;4.67;;;;;;;29.70;36.42;99865.05;1703921;83;20972;-73
2022/07/04 10:51:50;;;;;;;5.45;4.25;;;;;;;29.79;36.77;99866.96;1702832;82;21556;-71
2022/07/04 10:54:32;;;;;;;8.95;4.42;;;;;;;29.99;36.75;99853.21;1702597;84;21043;-71
2022/07/04 10:57:23;;;;;;;4.90;4.40;;;;;;;30.15;36.66;99851.06;1686382;83;21137;-69
2022/07/04 11:00:00;;;;;;;5.17;4.62;;;;;;;30.29;36.06;99853.20;1686544;83;21088;-71
2022/07/04 11:02:33;;;;;;;4.62;4.22;;;;;;;30.36;35.54;99850.50;1703703;82;22246;-69
2022/07/04 11:05:12;;;;;;;13.90;4.83;;;;;;;30.47;35.39;99846.50;1702632;82;21517;-70
2022/07/04 11:07:45;;;;;;;9.05;7.60;;;;;;;30.50;35.38;99846.56;1701931;82;21043;-70
2022/07/04 11:13:01;;;;;;;5.60;5.10;;;;;;;30.33;35.72;99845.72;1689019;84;21089;-72
2022/07/04 11:15:37;;;;;;;7.33;4.60;;;;;;;30.36;35.67;99835.84;1705673;83;21083;-72
2022/07/04 11:18:14;;;;;;;5.87;5.37;;;;;;;30.45;35.83;99839.92;1687492;84;20965;-72
2022/07/04 11:20:47;;;;;;;6.37;5.40;;;;;;;30.52;35.94;99849.73;1700567;83;21575;-73
2022/07/04 11:23:21;;;;;;;6.12;5.20;;;;;;;30.61;35.82;99834.95;1703185;82;21439;-70
2022/07/04 11:25:50;;;;;;;7.17;4.22;;;;;;;30.73;34.85;99833.91;1687290;83;21021;-69
2022/07/04 11:28:32;;;;;;;7.70;4.53;;;;;;;30.83;34.59;99833.21;1703814;82;21048;-70
2022/07/04 11:31:03;;;;;;;5.05;4.53;;;;;;;30.87;34.38;99829.06;1703655;82;21842;-73
2022/07/04 11:33:32;;;;;;;7.80;4.83;;;;;;;30.78;34.37;99823.03;1702035;83;20960;-71
2022/07/04 11:36:10;;;;;;;9.63;6.67;;;;;;;30.72;34.53;99823.38;1674179;83;21545;-75
2022/07/04 11:38:53;;;;;;;8.50;5.20;;;;;;;30.74;34.76;99813.28;1702410;83;21279;-69
2022/07/04 11:47:22;;;;;;;7.22;6.58;;;;;;;31.25;34.59;99811.96;1703767;84;20959;-69
2022/07/04 11:49:53;;;;;;;4.85;4.45;;;;;;;31.44;34.15;99817.26;1687897;84;21120;-69
2022/07/04 11:52:23;;;;;;;10.13;4.55;;;;;;;31.52;33.64;99813.33;1705074;82;21044;-68
2022/07/04 11:54:51;;;;;;;8.68;4.47;;;;;;;31.59;33.29;99816.80;1703496;82;20981;-69
2022/07/04 11:57:30;;;;;;;10.25;5.55;;;;;;;31.70;33.25;99813.49;1687792;84;21368;-69
2022/07/04 12:00:09;;;;;;;9.15;5.40;;;;;;;31.82;33.19;99810.95;1716615;83;21128;-71